sensor_id;sensor_type;location;lat;lon;timestamp;temperature;humidity
68274;SHT30;55104;47.356;19.448;2023-02-28T00:03:00;-0.44;67.34
68274;SHT30;55104;47.356;19.448;2023-02-28T00:06:06;-0.43;68.66
68274;SHT30;55104;47.356;19.448;2023-02-28T00:09:08;-0.40;68.93
68274;SHT30;55104;47.356;19.448;2023-02-28T00:12:10;-0.38;69.32
68274;SHT30;55104;47.356;19.448;2023-02-28T00:15:12;-0.37;69.62
68274;SHT30;55104;47.356;19.448;2023-02-28T00:18:15;-0.34;69.09
68274;SHT30;55104;47.356;19.448;2023-02-28T00:21:18;-0.34;68.63
68274;SHT30;55104;47.356;19.448;2023-02-28T00:24:21;-0.27;68.93
68274;SHT30;55104;47.356;19.448;2023-02-28T00:27:23;-0.22;68.73
68274;SHT30;55104;47.356;19.448;2023-02-28T00:30:25;-0.17;67.94
68274;SHT30;55104;47.356;19.448;2023-02-28T00:33:27;-0.19;67.72
68274;SHT30;55104;47.356;19.448;2023-02-28T00:36:30;-0.19;68.25
68274;SHT30;55104;47.356;19.448;2023-02-28T00:39:34;-0.14;68.08
68274;SHT30;55104;47.356;19.448;2023-02-28T00:42:36;-0.13;67.43
68274;SHT30;55104;47.356;19.448;2023-02-28T00:45:38;-0.06;67.84
68274;SHT30;55104;47.356;19.448;2023-02-28T00:48:40;-0.14;67.89
68274;SHT30;55104;47.356;19.448;2023-02-28T00:51:42;-0.16;68.53
68274;SHT30;55104;47.356;19.448;2023-02-28T00:54:45;-0.13;68.48
68274;SHT30;55104;47.356;19.448;2023-02-28T00:57:48;-0.13;68.83
68274;SHT30;55104;47.356;19.448;2023-02-28T01:00:51;-0.09;68.94
68274;SHT30;55104;47.356;19.448;2023-02-28T01:03:54;-0.07;68.96
68274;SHT30;55104;47.356;19.448;2023-02-28T01:06:56;-0.07;68.16
68274;SHT30;55104;47.356;19.448;2023-02-28T01:09:58;-0.06;68.96
68274;SHT30;55104;47.356;19.448;2023-02-28T01:13:01;-0.05;68.80
68274;SHT30;55104;47.356;19.448;2023-02-28T01:16:03;-0.05;68.87
68274;SHT30;55104;47.356;19.448;2023-02-28T01:19:05;-0.02;68.74
68274;SHT30;55104;47.356;19.448;2023-02-28T01:22:07;-0.02;68.78
68274;SHT30;55104;47.356;19.448;2023-02-28T01:25:09;0.01;69.11
68274;SHT30;55104;47.356;19.448;2023-02-28T01:28:11;-0.02;68.77
68274;SHT30;55104;47.356;19.448;2023-02-28T01:31:14;-0.02;68.71
68274;SHT30;55104;47.356;19.448;2023-02-28T01:34:16;-0.01;68.96
68274;SHT30;55104;47.356;19.448;2023-02-28T01:37:20;0.04;69.30
68274;SHT30;55104;47.356;19.448;2023-02-28T01:40:23;0.05;69.37
68274;SHT30;55104;47.356;19.448;2023-02-28T01:46:30;0.02;69.23
68274;SHT30;55104;47.356;19.448;2023-02-28T01:49:33;0.08;68.94
68274;SHT30;55104;47.356;19.448;2023-02-28T01:52:35;0.04;69.57
68274;SHT30;55104;47.356;19.448;2023-02-28T01:55:39;0.02;69.29
68274;SHT30;55104;47.356;19.448;2023-02-28T01:58:42;0.05;69.03
68274;SHT30;55104;47.356;19.448;2023-02-28T02:01:44;0.12;67.48
68274;SHT30;55104;47.356;19.448;2023-02-28T02:04:55;0.11;67.33
68274;SHT30;55104;47.356;19.448;2023-02-28T02:08:05;0.16;67.60
68274;SHT30;55104;47.356;19.448;2023-02-28T02:11:09;0.18;67.61
68274;SHT30;55104;47.356;19.448;2023-02-28T02:17:48;0.22;67.48
68274;SHT30;55104;47.356;19.448;2023-02-28T02:24:45;0.26;67.51
68274;SHT30;55104;47.356;19.448;2023-02-28T02:28:18;0.22;68.17
68274;SHT30;55104;47.356;19.448;2023-02-28T02:47:30;0.21;69.13
68274;SHT30;55104;47.356;19.448;2023-02-28T02:50:38;0.19;69.62
68274;SHT30;55104;47.356;19.448;2023-02-28T02:53:47;0.22;69.50
68274;SHT30;55104;47.356;19.448;2023-02-28T02:56:51;0.25;69.34
68274;SHT30;55104;47.356;19.448;2023-02-28T02:59:56;0.19;69.58
68274;SHT30;55104;47.356;19.448;2023-02-28T03:02:59;0.15;69.88
68274;SHT30;55104;47.356;19.448;2023-02-28T03:06:03;0.21;69.89
68274;SHT30;55104;47.356;19.448;2023-02-28T03:09:06;0.18;70.10
68274;SHT30;55104;47.356;19.448;2023-02-28T03:12:11;0.21;69.67
68274;SHT30;55104;47.356;19.448;2023-02-28T03:15:27;0.16;69.37
68274;SHT30;55104;47.356;19.448;2023-02-28T03:21:50;0.11;69.27
68274;SHT30;55104;47.356;19.448;2023-02-28T03:31:48;0.19;69.12
68274;SHT30;55104;47.356;19.448;2023-02-28T03:35:08;0.21;69.08
68274;SHT30;55104;47.356;19.448;2023-02-28T03:38:17;0.18;68.91
68274;SHT30;55104;47.356;19.448;2023-02-28T03:41:23;0.12;69.23
68274;SHT30;55104;47.356;19.448;2023-02-28T03:44:51;0.18;69.58
68274;SHT30;55104;47.356;19.448;2023-02-28T03:48:02;0.19;68.97
68274;SHT30;55104;47.356;19.448;2023-02-28T03:51:06;0.21;69.05
68274;SHT30;55104;47.356;19.448;2023-02-28T03:54:13;0.21;69.34
68274;SHT30;55104;47.356;19.448;2023-02-28T03:57:26;0.11;68.26
68274;SHT30;55104;47.356;19.448;2023-02-28T04:00:35;0.12;67.73
68274;SHT30;55104;47.356;19.448;2023-02-28T04:03:39;0.06;67.43
68274;SHT30;55104;47.356;19.448;2023-02-28T04:06:42;0.02;67.86
68274;SHT30;55104;47.356;19.448;2023-02-28T04:09:44;-0.01;67.71
68274;SHT30;55104;47.356;19.448;2023-02-28T04:12:47;0.12;67.21
68274;SHT30;55104;47.356;19.448;2023-02-28T04:15:49;0.12;67.42
68274;SHT30;55104;47.356;19.448;2023-02-28T04:18:51;0.16;67.80
68274;SHT30;55104;47.356;19.448;2023-02-28T04:21:53;0.19;67.83
68274;SHT30;55104;47.356;19.448;2023-02-28T04:24:55;0.16;67.15
68274;SHT30;55104;47.356;19.448;2023-02-28T04:27:57;0.21;67.00
68274;SHT30;55104;47.356;19.448;2023-02-28T04:31:02;0.22;67.58
68274;SHT30;55104;47.356;19.448;2023-02-28T04:34:05;0.26;67.21
68274;SHT30;55104;47.356;19.448;2023-02-28T04:37:07;0.16;66.88
68274;SHT30;55104;47.356;19.448;2023-02-28T04:40:15;0.19;66.73
68274;SHT30;55104;47.356;19.448;2023-02-28T04:43:18;0.14;67.04
68274;SHT30;55104;47.356;19.448;2023-02-28T04:46:20;0.19;67.02
68274;SHT30;55104;47.356;19.448;2023-02-28T04:49:22;0.24;67.18
68274;SHT30;55104;47.356;19.448;2023-02-28T04:52:27;0.28;67.21
68274;SHT30;55104;47.356;19.448;2023-02-28T04:55:29;0.22;66.91
68274;SHT30;55104;47.356;19.448;2023-02-28T04:58:31;0.22;67.20
68274;SHT30;55104;47.356;19.448;2023-02-28T05:01:34;0.29;66.70
68274;SHT30;55104;47.356;19.448;2023-02-28T05:04:38;0.22;66.13
68274;SHT30;55104;47.356;19.448;2023-02-28T05:07:40;0.26;66.27
68274;SHT30;55104;47.356;19.448;2023-02-28T05:10:42;0.21;66.24
68274;SHT30;55104;47.356;19.448;2023-02-28T05:13:44;0.24;66.24
68274;SHT30;55104;47.356;19.448;2023-02-28T05:16:46;0.32;66.66
68274;SHT30;55104;47.356;19.448;2023-02-28T05:19:48;0.32;65.97
68274;SHT30;55104;47.356;19.448;2023-02-28T05:22:51;0.32;65.96
68274;SHT30;55104;47.356;19.448;2023-02-28T05:25:54;0.41;66.07
68274;SHT30;55104;47.356;19.448;2023-02-28T05:28:57;0.39;65.95
68274;SHT30;55104;47.356;19.448;2023-02-28T05:31:59;0.32;66.52
68274;SHT30;55104;47.356;19.448;2023-02-28T05:35:01;0.32;67.00
68274;SHT30;55104;47.356;19.448;2023-02-28T05:38:03;0.35;66.75
68274;SHT30;55104;47.356;19.448;2023-02-28T05:41:07;0.33;67.23
68274;SHT30;55104;47.356;19.448;2023-02-28T05:44:10;0.39;67.48
68274;SHT30;55104;47.356;19.448;2023-02-28T05:47:12;0.45;67.17
68274;SHT30;55104;47.356;19.448;2023-02-28T05:50:18;0.42;67.18
68274;SHT30;55104;47.356;19.448;2023-02-28T05:53:20;0.41;67.52
68274;SHT30;55104;47.356;19.448;2023-02-28T05:56:22;0.45;67.35
68274;SHT30;55104;47.356;19.448;2023-02-28T05:59:24;0.52;67.30
68274;SHT30;55104;47.356;19.448;2023-02-28T06:02:26;0.49;67.29
68274;SHT30;55104;47.356;19.448;2023-02-28T06:05:28;0.33;67.04
68274;SHT30;55104;47.356;19.448;2023-02-28T06:08:30;0.32;67.71
68274;SHT30;55104;47.356;19.448;2023-02-28T06:11:33;0.45;67.23
68274;SHT30;55104;47.356;19.448;2023-02-28T06:14:35;0.52;67.26
68274;SHT30;55104;47.356;19.448;2023-02-28T06:17:37;0.59;67.03
68274;SHT30;55104;47.356;19.448;2023-02-28T06:20:39;0.66;66.78
68274;SHT30;55104;47.356;19.448;2023-02-28T06:23:41;0.69;66.14
68274;SHT30;55104;47.356;19.448;2023-02-28T06:26:43;0.80;66.31
68274;SHT30;55104;47.356;19.448;2023-02-28T06:29:45;0.92;66.14
68274;SHT30;55104;47.356;19.448;2023-02-28T06:32:48;1.02;66.80
68274;SHT30;55104;47.356;19.448;2023-02-28T06:35:51;1.15;66.27
68274;SHT30;55104;47.356;19.448;2023-02-28T06:38:53;1.19;66.72
68274;SHT30;55104;47.356;19.448;2023-02-28T06:41:58;1.28;66.44
68274;SHT30;55104;47.356;19.448;2023-02-28T06:45:00;1.32;66.61
68274;SHT30;55104;47.356;19.448;2023-02-28T06:48:05;1.28;66.61
68274;SHT30;55104;47.356;19.448;2023-02-28T06:51:18;1.26;66.30
68274;SHT30;55104;47.356;19.448;2023-02-28T06:54:22;1.18;66.19
68274;SHT30;55104;47.356;19.448;2023-02-28T06:57:24;1.12;66.34
68274;SHT30;55104;47.356;19.448;2023-02-28T07:00:27;1.24;66.21
68274;SHT30;55104;47.356;19.448;2023-02-28T07:03:29;1.32;65.82
68274;SHT30;55104;47.356;19.448;2023-02-28T07:06:35;1.39;66.00
68274;SHT30;55104;47.356;19.448;2023-02-28T07:09:37;1.50;65.47
68274;SHT30;55104;47.356;19.448;2023-02-28T07:12:39;1.53;64.75
68274;SHT30;55104;47.356;19.448;2023-02-28T07:15:42;1.32;65.17
68274;SHT30;55104;47.356;19.448;2023-02-28T07:18:45;1.45;64.72
68274;SHT30;55104;47.356;19.448;2023-02-28T07:21:48;1.54;64.97
68274;SHT30;55104;47.356;19.448;2023-02-28T07:24:51;1.45;64.31
68274;SHT30;55104;47.356;19.448;2023-02-28T07:27:54;1.50;63.78
68274;SHT30;55104;47.356;19.448;2023-02-28T07:30:56;1.43;63.98
68274;SHT30;55104;47.356;19.448;2023-02-28T07:33:59;1.67;64.08
68274;SHT30;55104;47.356;19.448;2023-02-28T07:37:01;1.78;63.90
68274;SHT30;55104;47.356;19.448;2023-02-28T07:40:07;1.84;63.89
68274;SHT30;55104;47.356;19.448;2023-02-28T07:43:10;1.84;63.48
68274;SHT30;55104;47.356;19.448;2023-02-28T07:46:14;1.93;63.19
68274;SHT30;55104;47.356;19.448;2023-02-28T07:49:19;1.98;63.06
68274;SHT30;55104;47.356;19.448;2023-02-28T07:52:21;1.98;63.27
68274;SHT30;55104;47.356;19.448;2023-02-28T07:55:25;2.18;63.53
68274;SHT30;55104;47.356;19.448;2023-02-28T07:58:28;2.24;63.02
68274;SHT30;55104;47.356;19.448;2023-02-28T08:01:31;2.11;63.30
68274;SHT30;55104;47.356;19.448;2023-02-28T08:04:34;2.14;63.59
68274;SHT30;55104;47.356;19.448;2023-02-28T08:07:37;2.26;64.17
68274;SHT30;55104;47.356;19.448;2023-02-28T08:10:39;2.29;64.86
68274;SHT30;55104;47.356;19.448;2023-02-28T08:13:42;2.49;64.31
68274;SHT30;55104;47.356;19.448;2023-02-28T08:16:47;2.36;64.39
68274;SHT30;55104;47.356;19.448;2023-02-28T08:19:49;2.63;63.76
68274;SHT30;55104;47.356;19.448;2023-02-28T08:22:51;2.74;64.41
68274;SHT30;55104;47.356;19.448;2023-02-28T08:25:55;2.98;63.32
68274;SHT30;55104;47.356;19.448;2023-02-28T08:28:57;3.18;63.53
68274;SHT30;55104;47.356;19.448;2023-02-28T08:32:02;3.26;63.13
68274;SHT30;55104;47.356;19.448;2023-02-28T08:35:04;3.26;62.39
68274;SHT30;55104;47.356;19.448;2023-02-28T08:38:06;3.19;62.83
68274;SHT30;55104;47.356;19.448;2023-02-28T08:41:11;3.05;63.07
68274;SHT30;55104;47.356;19.448;2023-02-28T08:44:13;3.26;62.10
68274;SHT30;55104;47.356;19.448;2023-02-28T08:47:15;2.95;62.66
68274;SHT30;55104;47.356;19.448;2023-02-28T08:50:18;3.07;62.62
68274;SHT30;55104;47.356;19.448;2023-02-28T08:53:20;3.16;62.40
68274;SHT30;55104;47.356;19.448;2023-02-28T08:56:22;3.38;62.70
68274;SHT30;55104;47.356;19.448;2023-02-28T08:59:24;3.56;62.11
68274;SHT30;55104;47.356;19.448;2023-02-28T09:02:26;3.73;61.52
68274;SHT30;55104;47.356;19.448;2023-02-28T09:05:28;3.57;61.03
68274;SHT30;55104;47.356;19.448;2023-02-28T09:08:32;3.78;61.81
68274;SHT30;55104;47.356;19.448;2023-02-28T09:11:35;4.08;61.44
68274;SHT30;55104;47.356;19.448;2023-02-28T09:14:37;4.09;60.37
68274;SHT30;55104;47.356;19.448;2023-02-28T09:17:39;3.87;60.95
68274;SHT30;55104;47.356;19.448;2023-02-28T09:20:41;3.93;61.61
68274;SHT30;55104;47.356;19.448;2023-02-28T09:23:46;3.78;60.76
68274;SHT30;55104;47.356;19.448;2023-02-28T09:26:48;3.62;61.48
68274;SHT30;55104;47.356;19.448;2023-02-28T09:30:04;3.66;61.27
68274;SHT30;55104;47.356;19.448;2023-02-28T09:33:07;3.63;62.16
68274;SHT30;55104;47.356;19.448;2023-02-28T09:36:09;3.80;61.93
68274;SHT30;55104;47.356;19.448;2023-02-28T09:39:12;3.53;61.56
68274;SHT30;55104;47.356;19.448;2023-02-28T09:42:21;4.04;61.63
68274;SHT30;55104;47.356;19.448;2023-02-28T09:45:38;4.08;60.67
68274;SHT30;55104;47.356;19.448;2023-02-28T09:48:45;3.90;61.25
68274;SHT30;55104;47.356;19.448;2023-02-28T09:52:05;4.08;61.46
68274;SHT30;55104;47.356;19.448;2023-02-28T09:55:21;4.40;61.92
68274;SHT30;55104;47.356;19.448;2023-02-28T09:58:33;4.42;60.38
68274;SHT30;55104;47.356;19.448;2023-02-28T10:01:52;4.26;61.28
68274;SHT30;55104;47.356;19.448;2023-02-28T10:09:00;4.50;61.37
68274;SHT30;55104;47.356;19.448;2023-02-28T10:12:06;4.78;60.35
68274;SHT30;55104;47.356;19.448;2023-02-28T10:15:15;5.08;60.80
68274;SHT30;55104;47.356;19.448;2023-02-28T10:18:22;4.99;59.50
68274;SHT30;55104;47.356;19.448;2023-02-28T10:21:36;4.91;59.50
68274;SHT30;55104;47.356;19.448;2023-02-28T10:24:44;4.92;60.21
68274;SHT30;55104;47.356;19.448;2023-02-28T10:27:47;4.95;59.98
68274;SHT30;55104;47.356;19.448;2023-02-28T10:30:51;4.92;59.74
68274;SHT30;55104;47.356;19.448;2023-02-28T10:33:54;5.14;59.98
68274;SHT30;55104;47.356;19.448;2023-02-28T10:36:58;5.12;58.35
68274;SHT30;55104;47.356;19.448;2023-02-28T10:40:31;4.98;59.19
68274;SHT30;55104;47.356;19.448;2023-02-28T10:43:35;4.74;59.91
68274;SHT30;55104;47.356;19.448;2023-02-28T10:46:40;5.14;60.16
68274;SHT30;55104;47.356;19.448;2023-02-28T10:49:48;5.12;59.42
68274;SHT30;55104;47.356;19.448;2023-02-28T10:52:50;5.25;59.46
68274;SHT30;55104;47.356;19.448;2023-02-28T10:56:06;4.84;60.75
68274;SHT30;55104;47.356;19.448;2023-02-28T11:02:35;4.52;61.85
68274;SHT30;55104;47.356;19.448;2023-02-28T11:05:38;4.30;61.58
68274;SHT30;55104;47.356;19.448;2023-02-28T11:08:52;4.60;61.96
68274;SHT30;55104;47.356;19.448;2023-02-28T11:11:55;4.57;61.73
68274;SHT30;55104;47.356;19.448;2023-02-28T11:15:04;4.76;61.33
68274;SHT30;55104;47.356;19.448;2023-02-28T11:18:24;4.64;61.79
68274;SHT30;55104;47.356;19.448;2023-02-28T11:21:34;4.57;62.46
68274;SHT30;55104;47.356;19.448;2023-02-28T11:24:44;4.83;61.63
68274;SHT30;55104;47.356;19.448;2023-02-28T11:27:52;4.84;61.79
68274;SHT30;55104;47.356;19.448;2023-02-28T11:34:27;4.99;61.36
68274;SHT30;55104;47.356;19.448;2023-02-28T11:37:31;5.18;61.09
68274;SHT30;55104;47.356;19.448;2023-02-28T11:40:52;5.15;61.40
68274;SHT30;55104;47.356;19.448;2023-02-28T11:51:10;5.09;61.05
68274;SHT30;55104;47.356;19.448;2023-02-28T12:21:19;5.71;58.92
68274;SHT30;55104;47.356;19.448;2023-02-28T12:27:50;5.78;59.59
68274;SHT30;55104;47.356;19.448;2023-02-28T12:31:11;5.95;58.88
68274;SHT30;55104;47.356;19.448;2023-02-28T12:34:20;5.80;59.17
68274;SHT30;55104;47.356;19.448;2023-02-28T12:40:48;5.67;59.87
68274;SHT30;55104;47.356;19.448;2023-02-28T12:44:06;5.49;59.86
68274;SHT30;55104;47.356;19.448;2023-02-28T12:47:15;5.42;60.33
68274;SHT30;55104;47.356;19.448;2023-02-28T12:50:18;5.29;61.08
68274;SHT30;55104;47.356;19.448;2023-02-28T13:00:18;5.60;62.24
68274;SHT30;55104;47.356;19.448;2023-02-28T13:10:17;5.66;60.79
68274;SHT30;55104;47.356;19.448;2023-02-28T13:13:23;5.77;61.48
68274;SHT30;55104;47.356;19.448;2023-02-28T13:16:26;6.02;61.39
68274;SHT30;55104;47.356;19.448;2023-02-28T13:19:33;6.35;59.78
68274;SHT30;55104;47.356;19.448;2023-02-28T13:22:48;6.42;60.21
68274;SHT30;55104;47.356;19.448;2023-02-28T13:25:51;6.11;60.10
68274;SHT30;55104;47.356;19.448;2023-02-28T13:38:21;5.46;61.25
68274;SHT30;55104;47.356;19.448;2023-02-28T13:48:17;5.83;60.60
68274;SHT30;55104;47.356;19.448;2023-02-28T13:51:42;5.81;60.14
68274;SHT30;55104;47.356;19.448;2023-02-28T13:54:56;5.67;61.57
68274;SHT30;55104;47.356;19.448;2023-02-28T14:01:31;5.74;60.59
68274;SHT30;55104;47.356;19.448;2023-02-28T14:04:57;5.90;60.68
68274;SHT30;55104;47.356;19.448;2023-02-28T14:08:21;5.84;60.86
68274;SHT30;55104;47.356;19.448;2023-02-28T14:11:35;5.49;60.94
68274;SHT30;55104;47.356;19.448;2023-02-28T14:17:40;5.50;62.43
68274;SHT30;55104;47.356;19.448;2023-02-28T14:20:43;5.74;62.24
68274;SHT30;55104;47.356;19.448;2023-02-28T14:27:03;5.81;61.64
68274;SHT30;55104;47.356;19.448;2023-02-28T14:36:52;5.56;62.80
68274;SHT30;55104;47.356;19.448;2023-02-28T14:39:57;5.42;62.95
68274;SHT30;55104;47.356;19.448;2023-02-28T14:43:02;5.44;63.14
68274;SHT30;55104;47.356;19.448;2023-02-28T14:46:06;5.53;63.60
68274;SHT30;55104;47.356;19.448;2023-02-28T14:49:27;5.61;63.85
68274;SHT30;55104;47.356;19.448;2023-02-28T14:52:32;5.71;63.68
68274;SHT30;55104;47.356;19.448;2023-02-28T14:55:35;5.70;63.63
68274;SHT30;55104;47.356;19.448;2023-02-28T14:58:38;5.64;64.09
68274;SHT30;55104;47.356;19.448;2023-02-28T15:01:40;5.57;64.56
68274;SHT30;55104;47.356;19.448;2023-02-28T15:04:42;5.42;64.52
68274;SHT30;55104;47.356;19.448;2023-02-28T15:07:46;5.44;65.01
68274;SHT30;55104;47.356;19.448;2023-02-28T15:13:56;5.25;64.81
68274;SHT30;55104;47.356;19.448;2023-02-28T15:17:02;5.21;65.12
68274;SHT30;55104;47.356;19.448;2023-02-28T15:20:11;5.11;65.36
68274;SHT30;55104;47.356;19.448;2023-02-28T15:23:17;5.19;65.66
68274;SHT30;55104;47.356;19.448;2023-02-28T15:26:23;5.11;65.63
68274;SHT30;55104;47.356;19.448;2023-02-28T15:29:29;5.02;66.20
68274;SHT30;55104;47.356;19.448;2023-02-28T15:32:36;4.97;66.18
68274;SHT30;55104;47.356;19.448;2023-02-28T15:35:40;4.91;66.37
68274;SHT30;55104;47.356;19.448;2023-02-28T15:38:43;4.89;66.24
68274;SHT30;55104;47.356;19.448;2023-02-28T15:41:45;4.97;66.10
68274;SHT30;55104;47.356;19.448;2023-02-28T15:44:48;4.85;66.17
68274;SHT30;55104;47.356;19.448;2023-02-28T15:47:50;4.91;66.64
68274;SHT30;55104;47.356;19.448;2023-02-28T15:51:08;4.88;66.73
68274;SHT30;55104;47.356;19.448;2023-02-28T15:54:38;4.80;66.70
68274;SHT30;55104;47.356;19.448;2023-02-28T15:57:40;4.76;67.23
68274;SHT30;55104;47.356;19.448;2023-02-28T16:00:43;4.71;67.37
68274;SHT30;55104;47.356;19.448;2023-02-28T16:03:50;4.68;67.67
68274;SHT30;55104;47.356;19.448;2023-02-28T16:10:01;4.61;68.25
68274;SHT30;55104;47.356;19.448;2023-02-28T16:13:04;4.56;68.40
68274;SHT30;55104;47.356;19.448;2023-02-28T16:16:06;4.48;69.44
68274;SHT30;55104;47.356;19.448;2023-02-28T16:19:08;4.50;69.43
68274;SHT30;55104;47.356;19.448;2023-02-28T16:22:10;4.49;69.06
68274;SHT30;55104;47.356;19.448;2023-02-28T16:25:22;4.43;69.18
68274;SHT30;55104;47.356;19.448;2023-02-28T16:28:34;4.40;69.67
68274;SHT30;55104;47.356;19.448;2023-02-28T16:31:37;4.40;70.09
68274;SHT30;55104;47.356;19.448;2023-02-28T16:34:39;4.40;69.53
68274;SHT30;55104;47.356;19.448;2023-02-28T16:37:41;4.39;69.89
68274;SHT30;55104;47.356;19.448;2023-02-28T16:40:46;4.35;70.49
68274;SHT30;55104;47.356;19.448;2023-02-28T16:43:50;4.35;70.03
68274;SHT30;55104;47.356;19.448;2023-02-28T16:46:53;4.30;70.10
68274;SHT30;55104;47.356;19.448;2023-02-28T16:49:55;4.35;70.52
68274;SHT30;55104;47.356;19.448;2023-02-28T16:52:58;4.35;70.34
68274;SHT30;55104;47.356;19.448;2023-02-28T16:56:00;4.33;70.69
68274;SHT30;55104;47.356;19.448;2023-02-28T16:59:04;4.29;70.91
68274;SHT30;55104;47.356;19.448;2023-02-28T17:02:14;4.28;70.84
68274;SHT30;55104;47.356;19.448;2023-02-28T17:05:17;4.28;71.13
68274;SHT30;55104;47.356;19.448;2023-02-28T17:08:20;4.22;70.87
68274;SHT30;55104;47.356;19.448;2023-02-28T17:11:23;4.22;71.01
68274;SHT30;55104;47.356;19.448;2023-02-28T17:14:26;4.18;71.36
68274;SHT30;55104;47.356;19.448;2023-02-28T17:17:29;4.16;71.40
68274;SHT30;55104;47.356;19.448;2023-02-28T17:20:32;4.16;71.40
68274;SHT30;55104;47.356;19.448;2023-02-28T17:23:34;4.15;71.63
68274;SHT30;55104;47.356;19.448;2023-02-28T17:26:36;4.19;71.34
68274;SHT30;55104;47.356;19.448;2023-02-28T17:29:38;4.16;71.54
68274;SHT30;55104;47.356;19.448;2023-02-28T17:32:40;4.16;71.83
68274;SHT30;55104;47.356;19.448;2023-02-28T17:35:42;4.16;72.34
68274;SHT30;55104;47.356;19.448;2023-02-28T17:38:44;4.18;71.90
68274;SHT30;55104;47.356;19.448;2023-02-28T17:41:46;4.15;72.24
68274;SHT30;55104;47.356;19.448;2023-02-28T17:44:48;4.12;72.32
68274;SHT30;55104;47.356;19.448;2023-02-28T17:47:50;4.12;72.60
68274;SHT30;55104;47.356;19.448;2023-02-28T17:50:53;4.12;72.80
68274;SHT30;55104;47.356;19.448;2023-02-28T17:53:55;4.09;72.91
68274;SHT30;55104;47.356;19.448;2023-02-28T17:56:57;4.06;73.01
68274;SHT30;55104;47.356;19.448;2023-02-28T18:00:00;4.06;72.90
68274;SHT30;55104;47.356;19.448;2023-02-28T18:03:13;4.04;73.28
68274;SHT30;55104;47.356;19.448;2023-02-28T18:06:25;4.05;73.46
68274;SHT30;55104;47.356;19.448;2023-02-28T18:09:29;4.04;73.47
68274;SHT30;55104;47.356;19.448;2023-02-28T18:12:31;4.04;73.20
68274;SHT30;55104;47.356;19.448;2023-02-28T18:15:33;4.01;73.30
68274;SHT30;55104;47.356;19.448;2023-02-28T18:18:35;3.98;73.46
68274;SHT30;55104;47.356;19.448;2023-02-28T18:21:47;4.02;73.51
68274;SHT30;55104;47.356;19.448;2023-02-28T18:24:49;3.99;73.54
68274;SHT30;55104;47.356;19.448;2023-02-28T18:27:52;3.99;73.57
68274;SHT30;55104;47.356;19.448;2023-02-28T18:31:14;3.98;73.60
68274;SHT30;55104;47.356;19.448;2023-02-28T18:34:17;3.97;73.64
68274;SHT30;55104;47.356;19.448;2023-02-28T18:37:19;4.05;74.06
68274;SHT30;55104;47.356;19.448;2023-02-28T18:40:22;4.09;73.41
68274;SHT30;55104;47.356;19.448;2023-02-28T18:43:25;4.18;73.12
68274;SHT30;55104;47.356;19.448;2023-02-28T18:46:27;4.19;72.81
68274;SHT30;55104;47.356;19.448;2023-02-28T18:49:30;4.06;73.10
68274;SHT30;55104;47.356;19.448;2023-02-28T18:52:34;4.15;72.87
68274;SHT30;55104;47.356;19.448;2023-02-28T18:55:36;4.15;72.89
68274;SHT30;55104;47.356;19.448;2023-02-28T18:58:38;4.15;73.07
68274;SHT30;55104;47.356;19.448;2023-02-28T19:01:41;4.18;73.15
68274;SHT30;55104;47.356;19.448;2023-02-28T19:04:43;4.19;73.08
68274;SHT30;55104;47.356;19.448;2023-02-28T19:07:46;4.21;73.13
68274;SHT30;55104;47.356;19.448;2023-02-28T19:10:48;4.22;73.00
68274;SHT30;55104;47.356;19.448;2023-02-28T19:13:50;4.21;72.98
68274;SHT30;55104;47.356;19.448;2023-02-28T19:16:53;4.19;73.07
68274;SHT30;55104;47.356;19.448;2023-02-28T19:19:55;4.15;73.22
68274;SHT30;55104;47.356;19.448;2023-02-28T19:22:57;4.05;73.84
68274;SHT30;55104;47.356;19.448;2023-02-28T19:26:22;4.05;73.94
68274;SHT30;55104;47.356;19.448;2023-02-28T19:29:24;4.06;74.14
68274;SHT30;55104;47.356;19.448;2023-02-28T19:32:26;4.05;74.37
68274;SHT30;55104;47.356;19.448;2023-02-28T19:35:28;4.05;74.18
68274;SHT30;55104;47.356;19.448;2023-02-28T19:38:30;4.04;74.51
68274;SHT30;55104;47.356;19.448;2023-02-28T19:41:33;4.08;74.22
68274;SHT30;55104;47.356;19.448;2023-02-28T19:44:35;4.11;74.22
68274;SHT30;55104;47.356;19.448;2023-02-28T19:47:37;4.09;74.25
68274;SHT30;55104;47.356;19.448;2023-02-28T19:50:40;4.09;74.57
68274;SHT30;55104;47.356;19.448;2023-02-28T19:53:42;4.06;74.76
68274;SHT30;55104;47.356;19.448;2023-02-28T19:56:45;4.08;74.94
68274;SHT30;55104;47.356;19.448;2023-02-28T19:59:47;4.05;75.05
68274;SHT30;55104;47.356;19.448;2023-02-28T20:02:52;4.05;75.07
68274;SHT30;55104;47.356;19.448;2023-02-28T20:05:58;4.01;74.73
68274;SHT30;55104;47.356;19.448;2023-02-28T20:09:01;4.04;75.06
68274;SHT30;55104;47.356;19.448;2023-02-28T20:12:03;4.04;74.63
68274;SHT30;55104;47.356;19.448;2023-02-28T20:15:10;4.02;74.37
68274;SHT30;55104;47.356;19.448;2023-02-28T20:18:12;4.04;74.02
68274;SHT30;55104;47.356;19.448;2023-02-28T20:21:14;3.98;74.22
68274;SHT30;55104;47.356;19.448;2023-02-28T20:24:17;3.85;74.28
68274;SHT30;55104;47.356;19.448;2023-02-28T20:27:19;3.84;74.54
68274;SHT30;55104;47.356;19.448;2023-02-28T20:30:21;3.84;75.14
68274;SHT30;55104;47.356;19.448;2023-02-28T20:33:25;3.88;75.09
68274;SHT30;55104;47.356;19.448;2023-02-28T20:36:27;3.88;75.26
68274;SHT30;55104;47.356;19.448;2023-02-28T20:39:29;3.88;75.10
68274;SHT30;55104;47.356;19.448;2023-02-28T20:42:31;3.88;75.03
68274;SHT30;55104;47.356;19.448;2023-02-28T20:45:33;3.94;74.94
68274;SHT30;55104;47.356;19.448;2023-02-28T20:48:36;3.91;75.13
68274;SHT30;55104;47.356;19.448;2023-02-28T20:51:39;3.93;75.28
68274;SHT30;55104;47.356;19.448;2023-02-28T20:54:43;3.91;75.16
68274;SHT30;55104;47.356;19.448;2023-02-28T20:57:45;3.93;75.24
68274;SHT30;55104;47.356;19.448;2023-02-28T21:00:49;3.93;75.27
68274;SHT30;55104;47.356;19.448;2023-02-28T21:03:54;3.95;75.26
68274;SHT30;55104;47.356;19.448;2023-02-28T21:06:57;3.95;75.20
68274;SHT30;55104;47.356;19.448;2023-02-28T21:09:59;3.95;75.29
68274;SHT30;55104;47.356;19.448;2023-02-28T21:13:01;3.93;75.26
68274;SHT30;55104;47.356;19.448;2023-02-28T21:16:05;3.87;75.08
68274;SHT30;55104;47.356;19.448;2023-02-28T21:19:08;3.90;75.46
68274;SHT30;55104;47.356;19.448;2023-02-28T21:22:11;3.90;75.41
68274;SHT30;55104;47.356;19.448;2023-02-28T21:25:14;3.87;75.29
68274;SHT30;55104;47.356;19.448;2023-02-28T21:28:17;3.88;74.76
68274;SHT30;55104;47.356;19.448;2023-02-28T21:31:20;3.91;74.92
68274;SHT30;55104;47.356;19.448;2023-02-28T21:34:23;3.87;74.60
68274;SHT30;55104;47.356;19.448;2023-02-28T21:37:25;3.87;74.65
68274;SHT30;55104;47.356;19.448;2023-02-28T21:40:27;3.87;74.84
68274;SHT30;55104;47.356;19.448;2023-02-28T21:43:29;3.87;75.12
68274;SHT30;55104;47.356;19.448;2023-02-28T21:46:32;3.85;75.42
68274;SHT30;55104;47.356;19.448;2023-02-28T21:49:35;3.87;75.32